createdAt,value
2023-05-10T00:00:55.876Z,12.2835
2023-05-10T00:01:56.873Z,12.2733
2023-05-10T00:02:58.366Z,12.2644
2023-05-10T00:05:59.952Z,12.2383
2023-05-10T00:12:05.393Z,12.1879
2023-05-10T00:13:06.604Z,12.1840
2023-05-10T00:14:07.046Z,12.1785
2023-05-10T00:15:08.390Z,12.1736
2023-05-10T00:16:08.793Z,12.1701
2023-05-10T00:17:08.826Z,12.1645
2023-05-10T00:18:09.512Z,12.1569
2023-05-10T00:19:09.701Z,12.1515
2023-05-10T00:20:10.126Z,12.1444
2023-05-10T00:21:10.334Z,12.1392
2023-05-10T00:22:11.549Z,12.1333
2023-05-10T00:23:12.935Z,12.1266
2023-05-10T00:24:13.385Z,12.1213
2023-05-10T00:25:13.331Z,12.1151
2023-05-10T00:26:13.292Z,12.1086
2023-05-10T00:27:14.299Z,12.1057
2023-05-10T00:28:15.738Z,12.1012
2023-05-10T00:30:16.547Z,12.0925
2023-05-10T00:31:16.726Z,12.0883
2023-05-10T00:32:17.604Z,12.0834
2023-05-10T00:33:17.881Z,12.0819
2023-05-10T00:34:19.132Z,12.0798
2023-05-10T00:35:20.241Z,12.0762
2023-05-10T00:36:20.841Z,12.0734
2023-05-10T00:37:21.119Z,12.0681
2023-05-10T00:38:21.934Z,12.0637
2023-05-10T00:39:21.989Z,12.0621
2023-05-10T00:40:23.338Z,12.0594
2023-05-10T00:41:23.812Z,12.0576
2023-05-10T00:42:24.452Z,12.0601
2023-05-10T00:43:24.805Z,12.0620
2023-05-10T00:44:25.697Z,12.0674
2023-05-10T00:45:26.177Z,12.0730
2023-05-10T00:46:26.483Z,12.0772
2023-05-10T00:51:30.059Z,12.0935
2023-05-10T00:52:31.148Z,12.0989
2023-05-10T00:53:32.574Z,12.1013
2023-05-10T00:54:32.446Z,12.1018
2023-05-10T00:55:33.659Z,12.1010
2023-05-10T00:56:34.886Z,12.1002
2023-05-10T00:57:34.909Z,12.0988
2023-05-10T00:58:36.146Z,12.0989
2023-05-10T00:59:37.417Z,12.1003
2023-05-10T01:00:37.390Z,12.0968
2023-05-10T01:01:38.881Z,12.0948
2023-05-10T01:02:39.100Z,12.0922
2023-05-10T01:03:40.020Z,12.0854
2023-05-10T01:04:40.140Z,12.0820
2023-05-10T01:05:40.305Z,12.0797
2023-05-10T01:06:41.626Z,12.0777
2023-05-10T01:07:41.950Z,12.0777
2023-05-10T01:08:43.307Z,12.0770
2023-05-10T01:09:44.788Z,12.0737
2023-05-10T01:10:46.087Z,12.0722
2023-05-10T01:11:48.172Z,12.0719
2023-05-10T01:12:48.861Z,12.0693
2023-05-10T01:13:49.288Z,12.0664
2023-05-10T01:14:49.547Z,12.0641
2023-05-10T01:15:51.248Z,12.0629
2023-05-10T01:16:51.527Z,12.0628
2023-05-10T01:17:51.795Z,12.0646
2023-05-10T01:18:51.842Z,12.0666
2023-05-10T01:19:52.069Z,12.0680
2023-05-10T01:20:52.572Z,12.0679
2023-05-10T01:21:53.720Z,12.0673
2023-05-10T01:22:55.214Z,12.0676
2023-05-10T01:23:56.205Z,12.0685
2023-05-10T01:24:57.578Z,12.0742
2023-05-10T01:25:57.631Z,12.0793
2023-05-10T01:26:59.025Z,12.0797
2023-05-10T01:28:00.333Z,12.0806
2023-05-10T01:29:02.024Z,12.0814
2023-05-10T01:30:14.840Z,12.0802
2023-05-10T01:31:03.190Z,12.0805
2023-05-10T01:32:03.498Z,12.0826
2023-05-10T01:33:04.942Z,12.0819
2023-05-10T01:34:05.198Z,12.0804
2023-05-10T01:35:05.299Z,12.0790
2023-05-10T01:36:06.530Z,12.0789
2023-05-10T01:37:07.310Z,12.0789
2023-05-10T01:38:07.726Z,12.0782
2023-05-10T01:39:07.974Z,12.0773
2023-05-10T01:40:08.049Z,12.0770
2023-05-10T01:41:08.785Z,12.0796
2023-05-10T01:42:09.376Z,12.0813
2023-05-10T01:43:09.752Z,12.0814
2023-05-10T01:44:10.164Z,12.0795
2023-05-10T01:45:10.801Z,12.0763
2023-05-10T01:46:11.022Z,12.0748
2023-05-10T01:47:11.803Z,12.0744
2023-05-10T01:48:12.379Z,12.0735
2023-05-10T01:49:13.112Z,12.0709
2023-05-10T01:50:13.433Z,12.0710
2023-05-10T01:51:14.157Z,12.0690
2023-05-10T01:52:15.657Z,12.0681
2023-05-10T01:53:16.245Z,12.0663
2023-05-10T01:54:16.449Z,12.0662
2023-05-10T01:55:16.828Z,12.0704
2023-05-10T01:56:17.202Z,12.0745
2023-05-10T01:57:17.491Z,12.0774
2023-05-10T01:58:17.460Z,12.0787
2023-05-10T01:59:17.671Z,12.0812
2023-05-10T02:00:18.084Z,12.0822
2023-05-10T02:01:19.166Z,12.0852
2023-05-10T02:02:19.452Z,12.0887
2023-05-10T02:03:20.461Z,12.0922
2023-05-10T02:04:21.857Z,12.0939
2023-05-10T02:05:22.385Z,12.0977
2023-05-10T02:06:22.677Z,12.1020
2023-05-10T02:07:22.857Z,12.1051
2023-05-10T02:08:23.391Z,12.1049
2023-05-10T02:09:23.846Z,12.1024
2023-05-10T02:10:24.748Z,12.0989
2023-05-10T02:11:25.153Z,12.0999
2023-05-10T02:12:25.877Z,12.1004
2023-05-10T02:13:26.377Z,12.0991
2023-05-10T02:14:28.031Z,12.0987
2023-05-10T02:15:28.716Z,12.1014
2023-05-10T02:16:30.528Z,12.1025
2023-05-10T02:18:30.298Z,12.1007
2023-05-10T02:19:31.108Z,12.1019
2023-05-10T02:20:32.092Z,12.1048
2023-05-10T02:21:32.560Z,12.1065
2023-05-10T02:22:33.809Z,12.1052
2023-05-10T02:23:35.156Z,12.1042
2023-05-10T02:24:36.129Z,12.1048
2023-05-10T02:25:38.533Z,12.1047
2023-05-10T02:26:38.391Z,12.1054
2023-05-10T02:27:38.933Z,12.1040
2023-05-10T02:28:39.102Z,12.1033
2023-05-10T02:29:40.387Z,12.1023
2023-05-10T02:30:41.251Z,12.1026
2023-05-10T02:31:42.919Z,12.0985
2023-05-10T02:32:44.332Z,12.0934
2023-05-10T02:33:44.051Z,12.0863
2023-05-10T02:34:45.099Z,12.0845
2023-05-10T02:35:45.632Z,12.0818
2023-05-10T02:36:45.844Z,12.0830
2023-05-10T02:37:47.138Z,12.0829
2023-05-10T02:38:47.804Z,12.0817
2023-05-10T02:39:48.556Z,12.0793
2023-05-10T02:40:49.643Z,12.0805
2023-05-10T02:41:50.668Z,12.0803
2023-05-10T02:42:51.393Z,12.0787
2023-05-10T02:43:52.842Z,12.0805
2023-05-10T02:44:52.529Z,12.0794
2023-05-10T02:45:53.269Z,12.0792
2023-05-10T02:46:54.791Z,12.0786
2023-05-10T02:47:55.296Z,12.0804
2023-05-10T02:48:55.260Z,12.0842
2023-05-10T02:49:56.106Z,12.0867
2023-05-10T02:50:55.802Z,12.0875
2023-05-10T02:51:57.333Z,12.0862
2023-05-10T02:52:58.123Z,12.0830
2023-05-10T02:53:58.351Z,12.0801
2023-05-10T02:54:58.948Z,12.0770
2023-05-10T02:56:01.158Z,12.0750
2023-05-10T02:57:02.402Z,12.0737
2023-05-10T02:58:02.034Z,12.0707
2023-05-10T02:59:02.279Z,12.0689
2023-05-10T03:00:02.874Z,12.0679
2023-05-10T03:01:04.801Z,12.0659
2023-05-10T03:02:05.732Z,12.0662
2023-05-10T03:03:05.759Z,12.0654
2023-05-10T03:04:06.632Z,12.0656
2023-05-10T03:05:06.877Z,12.0648
2023-05-10T03:06:07.722Z,12.0635
2023-05-10T03:07:08.229Z,12.0641
2023-05-10T03:08:08.697Z,12.0645
2023-05-10T03:09:11.273Z,12.0612
2023-05-10T03:10:10.181Z,12.0576
2023-05-10T03:11:10.338Z,12.0564
2023-05-10T03:12:12.077Z,12.0541
2023-05-10T03:13:12.847Z,12.0512
2023-05-10T03:14:14.508Z,12.0512
2023-05-10T03:16:44.925Z,12.0558
2023-05-10T03:17:43.684Z,12.0628
2023-05-10T03:18:43.837Z,12.0678
2023-05-10T03:19:44.668Z,12.0708
2023-05-10T03:20:45.096Z,12.0723
2023-05-10T03:21:45.489Z,12.0717
2023-05-10T03:22:46.056Z,12.0709
2023-05-10T03:23:46.940Z,12.0724
2023-05-10T03:24:47.830Z,12.0719
2023-05-10T03:25:48.448Z,12.0700
2023-05-10T03:26:48.533Z,12.0698
2023-05-10T03:27:49.665Z,12.0705
2023-05-10T03:28:50.631Z,12.0718
2023-05-10T03:29:51.033Z,12.0723
2023-05-10T03:30:51.668Z,12.0695
2023-05-10T03:31:52.248Z,12.0671
2023-05-10T03:32:52.645Z,12.0685
2023-05-10T03:33:53.239Z,12.0679
2023-05-10T03:34:55.671Z,12.0640
2023-05-10T03:37:57.499Z,12.0570
2023-05-10T03:38:58.375Z,12.0536
2023-05-10T03:39:57.353Z,12.0517
2023-05-10T03:40:58.849Z,12.0515
2023-05-10T03:41:58.549Z,12.0475
2023-05-10T03:42:59.037Z,12.0430
2023-05-10T03:44:00.057Z,12.0405
2023-05-10T03:44:59.880Z,12.0368
2023-05-10T03:46:00.397Z,12.0346
2023-05-10T03:47:02.272Z,12.0312
2023-05-10T03:48:01.997Z,12.0302
2023-05-10T03:49:03.292Z,12.0279
2023-05-10T03:50:02.685Z,12.0275
2023-05-10T03:51:03.871Z,12.0278
2023-05-10T03:52:05.489Z,12.0231
2023-05-10T03:54:06.133Z,12.0165
2023-05-10T03:55:05.980Z,12.0130
2023-05-10T03:56:06.732Z,12.0086
2023-05-10T03:57:07.322Z,12.0056
2023-05-10T03:58:07.583Z,12.0030
2023-05-10T03:59:07.827Z,11.9999
2023-05-10T04:00:11.265Z,11.9996
2023-05-10T04:01:09.735Z,11.9981
2023-05-10T04:02:10.601Z,11.9994
2023-05-10T04:03:11.044Z,12.0019
2023-05-10T04:04:11.820Z,12.0023
2023-05-10T04:09:14.869Z,12.0194
2023-05-10T04:10:16.026Z,12.0229
2023-05-10T04:11:16.307Z,12.0279
2023-05-10T04:12:16.359Z,12.0323
2023-05-10T04:13:18.002Z,12.0336
2023-05-10T04:14:18.391Z,12.0352
2023-05-10T04:15:19.163Z,12.0384
2023-05-10T04:16:19.287Z,12.0399
2023-05-10T04:17:21.724Z,12.0423
2023-05-10T04:18:23.011Z,12.0438
2023-05-10T04:19:23.700Z,12.0438
2023-05-10T04:20:24.429Z,12.0440
2023-05-10T04:21:25.294Z,12.0420
2023-05-10T04:22:26.248Z,12.0411
2023-05-10T04:23:27.593Z,12.0411
2023-05-10T04:24:29.191Z,12.0429
2023-05-10T04:25:30.322Z,12.0433
2023-05-10T04:26:30.880Z,12.0427
2023-05-10T04:27:31.761Z,12.0402
2023-05-10T04:28:31.925Z,12.0394
2023-05-10T04:29:32.397Z,12.0400
2023-05-10T04:30:32.758Z,12.0397
2023-05-10T04:34:36.517Z,12.0387
2023-05-10T04:35:38.505Z,12.0401
2023-05-10T04:39:42.492Z,12.0412
2023-05-10T04:40:42.161Z,12.0412
2023-05-10T04:41:42.457Z,12.0381
2023-05-10T04:42:42.589Z,12.0356
2023-05-10T04:43:43.617Z,12.0362
2023-05-10T04:44:44.716Z,12.0347
2023-05-10T04:50:48.962Z,12.0166
2023-05-10T04:51:49.544Z,12.0139
2023-05-10T04:52:49.943Z,12.0132
2023-05-10T04:54:05.254Z,12.0097
2023-05-10T04:54:56.409Z,12.0053
2023-05-10T04:55:57.881Z,12.0052
2023-05-10T04:57:00.066Z,12.0031
2023-05-10T04:58:02.162Z,12.0004
2023-05-10T04:59:03.558Z,11.9938
2023-05-10T05:00:04.315Z,11.9887
2023-05-10T05:01:05.317Z,11.9868
2023-05-10T05:02:06.431Z,11.9844
2023-05-10T05:03:08.843Z,11.9844
2023-05-10T05:04:10.486Z,11.9832
2023-05-10T05:05:11.255Z,11.9835
2023-05-10T05:06:13.472Z,11.9817
2023-05-10T05:07:14.877Z,11.9822
2023-05-10T05:08:15.793Z,11.9802
2023-05-10T05:09:16.527Z,11.9837
2023-05-10T05:10:18.295Z,11.9884
2023-05-10T05:11:18.508Z,11.9921
2023-05-10T05:12:19.313Z,11.9964
2023-05-10T05:13:19.835Z,12.0001
2023-05-10T05:14:19.939Z,12.0042
2023-05-10T05:15:20.125Z,12.0061
2023-05-10T05:16:20.983Z,12.0025
2023-05-10T05:22:26.648Z,12.0217
2023-05-10T05:23:28.080Z,12.0272
2023-05-10T05:24:28.396Z,12.0311
2023-05-10T05:25:28.814Z,12.0320
2023-05-10T05:26:29.355Z,12.0334
2023-05-10T05:27:31.189Z,12.0330
2023-05-10T05:28:32.294Z,12.0290
2023-05-10T05:29:33.667Z,12.0230
2023-05-10T05:30:35.144Z,12.0133
2023-05-10T05:31:36.732Z,12.0037
2023-05-10T05:32:38.512Z,11.9969
2023-05-10T05:33:39.234Z,11.9926
2023-05-10T05:34:39.962Z,11.9878
2023-05-10T05:35:41.301Z,11.9883
2023-05-10T05:36:42.615Z,11.9908
2023-05-10T05:37:42.998Z,11.9958
2023-05-10T05:38:43.528Z,12.0068
2023-05-10T05:39:44.226Z,12.0187
2023-05-10T05:40:44.918Z,12.0234
2023-05-10T05:41:44.954Z,12.0263
2023-05-10T05:42:45.666Z,12.0273
2023-05-10T05:43:45.845Z,12.0310
2023-05-10T05:44:50.651Z,12.0296
2023-05-10T05:45:48.114Z,12.0214
2023-05-10T05:48:48.071Z,12.0091
2023-05-10T05:49:52.451Z,12.0051
2023-05-10T05:50:51.053Z,12.0004
2023-05-10T05:51:53.457Z,11.9975
2023-05-10T05:53:54.102Z,11.9895
2023-05-10T05:54:54.345Z,11.9896
2023-05-10T05:55:54.710Z,11.9901
2023-05-10T05:56:57.660Z,11.9911
2023-05-10T05:59:58.490Z,11.9957
2023-05-10T06:03:59.862Z,12.0154
2023-05-10T06:04:59.890Z,12.0253
2023-05-10T06:06:01.208Z,12.0361
2023-05-10T06:07:03.154Z,12.0435
2023-05-10T06:08:04.708Z,12.0458
2023-05-10T06:09:05.324Z,12.0499
2023-05-10T06:10:05.618Z,12.0593
2023-05-10T06:11:05.820Z,12.0682
2023-05-10T06:12:07.959Z,12.0810
2023-05-10T06:13:10.445Z,12.0935
2023-05-10T06:14:11.361Z,12.1026
2023-05-10T06:15:13.759Z,12.1057
2023-05-10T06:16:15.070Z,12.1128
2023-05-10T06:17:16.239Z,12.1215
2023-05-10T06:18:16.908Z,12.1334
2023-05-10T06:19:20.693Z,12.1483
2023-05-10T06:21:18.842Z,12.1790
2023-05-10T06:22:19.240Z,12.1928
2023-05-10T06:23:20.768Z,12.2057
2023-05-10T06:24:21.131Z,12.2175
2023-05-10T06:25:22.332Z,12.2207
2023-05-10T06:26:23.969Z,12.2174
2023-05-10T06:27:24.882Z,12.2145
2023-05-10T06:28:26.544Z,12.2154
2023-05-10T06:29:27.191Z,12.2179
2023-05-10T06:32:27.596Z,12.2214
2023-05-10T06:33:28.261Z,12.2172
2023-05-10T06:34:29.548Z,12.2059
2023-05-10T06:35:30.650Z,12.1945
2023-05-10T06:36:31.384Z,12.1838
2023-05-10T06:37:31.960Z,12.1726
2023-05-10T06:38:32.556Z,12.1630
2023-05-10T06:39:33.198Z,12.1522
2023-05-10T06:40:33.695Z,12.1448
2023-05-10T06:41:34.286Z,12.1344
2023-05-10T06:42:34.963Z,12.1257
2023-05-10T06:43:35.530Z,12.1159
2023-05-10T06:44:35.976Z,12.1086
2023-05-10T06:45:37.094Z,12.1032
2023-05-10T06:46:37.682Z,12.1014
2023-05-10T06:47:40.678Z,12.1010
2023-05-10T06:48:41.321Z,12.0998
2023-05-10T06:49:41.669Z,12.0989
2023-05-10T06:50:42.333Z,12.0944
2023-05-10T06:51:43.041Z,12.0907
2023-05-10T06:52:44.054Z,12.0894
2023-05-10T06:53:44.706Z,12.0890
2023-05-10T06:54:45.127Z,12.0963
2023-05-10T06:55:46.232Z,12.1043
2023-05-10T06:56:47.092Z,12.1126
2023-05-10T06:57:47.339Z,12.1188
2023-05-10T06:58:48.092Z,12.1299
2023-05-10T06:59:49.064Z,12.1416
2023-05-10T07:00:49.862Z,12.1555
2023-05-10T07:01:50.295Z,12.1666
2023-05-10T07:02:51.285Z,12.1771
2023-05-10T07:03:52.153Z,12.1860
2023-05-10T07:04:53.070Z,12.2002
2023-05-10T07:05:54.015Z,12.2122
2023-05-10T07:06:54.191Z,12.2248
2023-05-10T07:07:55.404Z,12.2367
2023-05-10T07:08:55.844Z,12.2496
2023-05-10T07:09:56.384Z,12.2616
2023-05-10T07:10:57.095Z,12.2785
2023-05-10T07:11:58.081Z,12.2966
2023-05-10T07:12:58.727Z,12.3116
2023-05-10T07:13:59.006Z,12.3210
2023-05-10T07:14:59.473Z,12.3274
2023-05-10T07:16:00.723Z,12.3290
2023-05-10T07:17:01.696Z,12.3299
2023-05-10T07:18:02.464Z,12.3348
2023-05-10T07:19:03.327Z,12.3426
2023-05-10T07:20:04.341Z,12.3490
2023-05-10T07:21:04.957Z,12.3564
2023-05-10T07:22:05.761Z,12.3629
2023-05-10T07:23:06.518Z,12.3734
2023-05-10T07:24:06.849Z,12.3888
2023-05-10T07:25:07.270Z,12.4077
2023-05-10T07:26:07.869Z,12.4297
2023-05-10T07:27:08.612Z,12.4518
2023-05-10T07:28:09.253Z,12.4796
2023-05-10T07:29:09.640Z,12.5032
2023-05-10T07:30:10.261Z,12.5181
2023-05-10T07:31:11.191Z,12.5350
2023-05-10T07:32:12.138Z,12.5459
2023-05-10T07:33:13.006Z,12.5499
2023-05-10T07:34:13.610Z,12.5455
2023-05-10T07:35:14.394Z,12.5345
2023-05-10T07:36:15.094Z,12.5210
2023-05-10T07:37:15.659Z,12.5064
2023-05-10T07:38:16.264Z,12.4972
2023-05-10T07:39:26.593Z,12.4910
2023-05-10T07:40:21.288Z,12.4783
2023-05-10T07:41:21.635Z,12.4681
2023-05-10T07:42:21.786Z,12.4580
2023-05-10T07:43:22.639Z,12.4513
2023-05-10T07:44:23.788Z,12.4467
2023-05-10T07:45:24.152Z,12.4444
2023-05-10T07:46:24.532Z,12.4481
2023-05-10T07:47:25.056Z,12.4494
2023-05-10T07:48:25.731Z,12.4524
2023-05-10T07:49:26.727Z,12.4516
2023-05-10T07:50:27.902Z,12.4438
2023-05-10T07:51:29.120Z,12.4336
2023-05-10T07:52:30.277Z,12.4236
2023-05-10T07:53:31.379Z,12.4094
2023-05-10T07:54:31.919Z,12.4022
2023-05-10T07:55:32.907Z,12.4024
2023-05-10T07:56:33.515Z,12.4036
2023-05-10T07:57:33.701Z,12.4094
2023-05-10T07:58:34.825Z,12.4256
2023-05-10T07:59:35.091Z,12.4537
2023-05-10T08:00:35.837Z,12.4804
2023-05-10T08:01:36.404Z,12.4951
2023-05-10T08:02:37.698Z,12.4997
2023-05-10T08:03:38.044Z,12.5002
2023-05-10T08:04:39.323Z,12.5034
2023-05-10T08:05:39.157Z,12.5074
2023-05-10T08:06:39.779Z,12.5116
2023-05-10T08:07:40.831Z,12.5223
2023-05-10T08:08:41.555Z,12.5437
2023-05-10T08:09:42.224Z,12.5606
2023-05-10T08:10:42.820Z,12.5632
2023-05-10T08:11:44.062Z,12.5509
2023-05-10T08:12:44.679Z,12.5343
2023-05-10T08:13:45.156Z,12.5322
2023-05-10T08:14:46.211Z,12.5392
2023-05-10T08:15:46.852Z,12.5512
2023-05-10T08:16:47.909Z,12.5688
2023-05-10T08:17:48.405Z,12.5928
2023-05-10T08:18:48.553Z,12.6187
2023-05-10T08:19:48.548Z,12.6487
2023-05-10T08:20:49.588Z,12.6859
2023-05-10T08:21:50.768Z,12.7202
2023-05-10T08:22:51.955Z,12.7532
2023-05-10T08:23:51.569Z,12.7819
2023-05-10T08:24:52.211Z,12.8073
2023-05-10T08:25:53.380Z,12.8212
2023-05-10T08:26:53.738Z,12.8324
2023-05-10T08:27:54.193Z,12.8389
2023-05-10T08:28:54.718Z,12.8467
2023-05-10T08:29:54.874Z,12.8578
2023-05-10T08:30:55.202Z,12.8724
2023-05-10T08:31:56.217Z,12.8899
2023-05-10T08:32:56.830Z,12.9071
2023-05-10T08:33:57.718Z,12.9230
2023-05-10T08:34:58.470Z,12.9338
2023-05-10T08:35:58.245Z,12.9539
2023-05-10T08:36:58.684Z,12.9812
2023-05-10T08:37:58.867Z,13.0119
2023-05-10T08:38:59.327Z,13.0393
2023-05-10T08:39:59.528Z,13.0605
2023-05-10T08:41:00.434Z,13.0820
2023-05-10T08:42:00.839Z,13.1002
2023-05-10T08:43:01.700Z,13.1001
2023-05-10T08:44:02.405Z,13.0928
2023-05-10T08:45:03.359Z,13.0885
2023-05-10T08:46:03.972Z,13.0869
2023-05-10T08:47:04.082Z,13.0889
2023-05-10T08:48:04.981Z,13.0924
2023-05-10T08:49:05.806Z,13.1035
2023-05-10T08:50:06.396Z,13.1334
2023-05-10T08:51:07.163Z,13.1706
2023-05-10T08:52:07.958Z,13.2029
2023-05-10T08:53:08.332Z,13.2281
2023-05-10T08:54:08.946Z,13.2524
2023-05-10T08:55:09.600Z,13.2764
2023-05-10T08:56:10.308Z,13.3090
2023-05-10T08:57:11.386Z,13.3476
2023-05-10T08:58:12.133Z,13.3790
2023-05-10T08:59:12.839Z,13.3884
2023-05-10T09:00:13.602Z,13.3892
2023-05-10T09:01:14.201Z,13.3953
2023-05-10T09:02:16.619Z,13.4010
2023-05-10T09:03:15.394Z,13.3985
2023-05-10T09:04:16.173Z,13.3950
2023-05-10T09:05:16.690Z,13.3840
2023-05-10T09:06:16.977Z,13.3701
2023-05-10T09:07:17.545Z,13.3583
2023-05-10T09:08:18.016Z,13.3453
2023-05-10T09:09:18.780Z,13.3240
2023-05-10T09:10:19.361Z,13.3010
2023-05-10T09:11:19.960Z,13.2946
2023-05-10T09:12:20.477Z,13.2948
2023-05-10T09:13:21.427Z,13.2869
2023-05-10T09:14:22.120Z,13.2638
2023-05-10T09:15:22.780Z,13.2332
2023-05-10T09:16:22.877Z,13.1954
2023-05-10T09:17:23.826Z,13.1530
2023-05-10T09:18:27.300Z,13.1192
2023-05-10T09:19:24.861Z,13.0880
2023-05-10T09:20:24.867Z,13.0694
2023-05-10T09:21:25.291Z,13.0537
2023-05-10T09:22:26.011Z,13.0330
2023-05-10T09:23:26.484Z,13.0092
2023-05-10T09:24:27.377Z,12.9877
2023-05-10T09:25:28.051Z,12.9672
2023-05-10T09:26:28.829Z,12.9564
2023-05-10T09:27:29.318Z,12.9561
2023-05-10T09:28:30.057Z,12.9725
2023-05-10T09:29:30.315Z,12.9955
2023-05-10T09:30:31.183Z,13.0152
2023-05-10T09:31:32.461Z,13.0361
2023-05-10T09:32:33.063Z,13.0565
2023-05-10T09:33:33.847Z,13.0794
2023-05-10T09:34:34.522Z,13.1035
2023-05-10T09:35:34.841Z,13.1212
2023-05-10T09:36:35.358Z,13.1336
2023-05-10T09:37:36.236Z,13.1376
2023-05-10T09:38:36.747Z,13.1273
2023-05-10T09:39:37.186Z,13.0952
2023-05-10T09:40:37.803Z,13.0556
2023-05-10T09:41:38.388Z,13.0149
2023-05-10T09:42:39.007Z,12.9743
2023-05-10T09:43:39.390Z,12.9434
2023-05-10T09:44:40.074Z,12.9199
2023-05-10T09:45:41.066Z,12.9005
2023-05-10T09:46:42.085Z,12.8811
2023-05-10T09:47:42.539Z,12.8565
2023-05-10T09:48:43.322Z,12.8339
2023-05-10T09:49:43.828Z,12.8124
2023-05-10T09:50:44.522Z,12.7853
2023-05-10T09:51:45.255Z,12.7592
2023-05-10T09:52:45.935Z,12.7361
2023-05-10T09:53:46.222Z,12.7204
2023-05-10T09:54:46.807Z,12.7156
2023-05-10T09:55:47.423Z,12.7172
2023-05-10T09:56:47.536Z,12.7230
2023-05-10T09:57:48.631Z,12.7398
2023-05-10T09:58:49.112Z,12.7689
2023-05-10T09:59:49.597Z,12.8007
2023-05-10T10:00:50.463Z,12.8288
2023-05-10T10:01:51.734Z,12.8605
2023-05-10T10:02:52.350Z,12.8905
2023-05-10T10:03:53.226Z,12.9165
2023-05-10T10:04:54.014Z,12.9388
2023-05-10T10:05:54.291Z,12.9579
2023-05-10T10:06:55.036Z,12.9675
2023-05-10T10:07:55.524Z,12.9669
2023-05-10T10:08:58.462Z,12.9633
2023-05-10T10:09:59.674Z,12.9773
2023-05-10T10:11:00.169Z,13.0181
2023-05-10T10:12:00.715Z,13.0743
2023-05-10T10:13:01.218Z,13.1358
2023-05-10T10:14:01.683Z,13.1997
2023-05-10T10:15:02.224Z,13.2585
2023-05-10T10:16:02.358Z,13.3124
2023-05-10T10:17:09.100Z,13.3619
2023-05-10T10:18:09.215Z,13.4126
2023-05-10T10:19:09.098Z,13.4508
2023-05-10T10:20:11.987Z,13.4789
2023-05-10T10:21:09.615Z,13.5007
2023-05-10T10:22:10.251Z,13.5241
2023-05-10T10:23:10.867Z,13.5443
2023-05-10T10:24:11.213Z,13.5554
2023-05-10T10:25:11.738Z,13.5553
2023-05-10T10:26:12.886Z,13.5445
2023-05-10T10:27:13.415Z,13.5539
2023-05-10T10:28:13.844Z,13.5819
2023-05-10T10:29:14.443Z,13.6155
2023-05-10T10:30:15.065Z,13.6506
2023-05-10T10:31:15.618Z,13.6816
2023-05-10T10:32:16.382Z,13.7097
2023-05-10T10:33:27.708Z,13.7331
2023-05-10T10:34:18.724Z,13.7629
2023-05-10T10:35:19.165Z,13.8092
2023-05-10T10:36:19.771Z,13.8604
2023-05-10T10:37:20.440Z,13.9127
2023-05-10T10:38:20.849Z,13.9784
2023-05-10T10:39:21.399Z,14.0309
2023-05-10T10:40:21.953Z,14.0709
2023-05-10T10:41:22.582Z,14.1160
2023-05-10T10:42:22.940Z,14.1542
2023-05-10T10:43:23.532Z,14.1741
2023-05-10T10:44:24.124Z,14.1858
2023-05-10T10:45:24.722Z,14.2102
2023-05-10T10:46:26.139Z,14.2525
2023-05-10T10:47:27.366Z,14.3101
2023-05-10T10:48:27.419Z,14.3735
2023-05-10T10:49:28.454Z,14.4356
2023-05-10T10:50:29.266Z,14.5016
2023-05-10T10:51:30.376Z,14.5477
2023-05-10T10:52:31.598Z,14.5691
2023-05-10T10:53:32.013Z,14.5804
2023-05-10T10:54:32.162Z,14.5989
2023-05-10T10:55:32.754Z,14.6255
2023-05-10T10:56:35.210Z,14.6418
2023-05-10T10:57:34.445Z,14.6480
2023-05-10T10:58:35.450Z,14.6620
2023-05-10T10:59:36.559Z,14.6761
2023-05-10T11:00:37.852Z,14.6758
2023-05-10T11:01:38.784Z,14.6502
2023-05-10T11:02:39.135Z,14.6040
2023-05-10T11:03:39.430Z,14.5597
2023-05-10T11:04:40.509Z,14.5205
2023-05-10T11:05:40.529Z,14.4831
2023-05-10T11:06:41.715Z,14.4438
2023-05-10T11:07:42.799Z,14.4005
2023-05-10T11:08:43.795Z,14.3464
2023-05-10T11:09:44.887Z,14.2752
2023-05-10T11:10:46.104Z,14.2014
2023-05-10T11:11:47.063Z,14.1253
2023-05-10T11:12:48.192Z,14.0452
2023-05-10T11:13:50.842Z,13.9787
2023-05-10T11:14:50.193Z,13.9194
2023-05-10T11:15:51.258Z,13.8736
2023-05-10T11:16:51.369Z,13.8249
2023-05-10T11:17:52.596Z,13.7803
2023-05-10T11:18:52.650Z,13.7341
2023-05-10T11:19:52.962Z,13.6816
2023-05-10T11:20:53.249Z,13.6306
2023-05-10T11:21:54.594Z,13.5846
2023-05-10T11:22:55.533Z,13.5452
2023-05-10T11:23:56.646Z,13.5157
2023-05-10T11:24:57.178Z,13.4965
2023-05-10T11:25:58.375Z,13.4869
2023-05-10T11:26:59.435Z,13.4843
2023-05-10T11:28:00.637Z,13.4891
2023-05-10T11:29:01.627Z,13.4963
2023-05-10T11:30:05.100Z,13.5020
2023-05-10T11:31:05.313Z,13.5093
2023-05-10T11:32:05.474Z,13.5256
2023-05-10T11:33:06.621Z,13.5624
2023-05-10T11:34:06.693Z,13.6170
2023-05-10T11:35:07.771Z,13.6849
2023-05-10T11:36:08.819Z,13.7559
2023-05-10T11:37:10.164Z,13.8199
2023-05-10T11:38:11.112Z,13.8707
2023-05-10T11:39:12.289Z,13.9111
2023-05-10T11:40:13.548Z,13.9494
2023-05-10T11:41:13.517Z,13.9819
2023-05-10T11:42:14.297Z,14.0064
2023-05-10T11:43:14.314Z,14.0307
2023-05-10T11:44:15.320Z,14.0549
2023-05-10T11:45:16.378Z,14.0846
2023-05-10T11:46:16.411Z,14.1153
2023-05-10T11:47:16.981Z,14.1278
2023-05-10T11:48:18.035Z,14.1274
2023-05-10T11:49:19.124Z,14.1212
2023-05-10T11:50:20.391Z,14.1074
2023-05-10T11:51:21.488Z,14.0879
2023-05-10T11:52:21.716Z,14.0657
2023-05-10T11:53:24.811Z,14.0416
2023-05-10T11:54:22.977Z,14.0181
2023-05-10T11:55:23.975Z,13.9930
2023-05-10T11:56:25.202Z,13.9474
2023-05-10T11:57:25.258Z,13.8969
2023-05-10T11:58:26.445Z,13.8493
2023-05-10T11:59:27.399Z,13.8083
2023-05-10T12:00:27.800Z,13.7778
2023-05-10T12:01:28.761Z,13.7522
2023-05-10T12:02:28.861Z,13.7363
2023-05-10T12:03:30.167Z,13.7379
2023-05-10T12:04:31.017Z,13.7630
2023-05-10T12:05:31.828Z,13.8062
2023-05-10T12:06:31.786Z,13.8693
2023-05-10T12:07:32.945Z,13.9550
2023-05-10T12:08:33.026Z,14.0710
2023-05-10T12:09:43.088Z,14.2000
2023-05-10T12:10:34.306Z,14.3579
2023-05-10T12:11:35.446Z,14.4784
2023-05-10T12:12:36.670Z,14.5710
2023-05-10T12:13:37.897Z,14.6349
2023-05-10T12:14:39.074Z,14.6672
2023-05-10T12:15:40.250Z,14.6739
2023-05-10T12:16:41.851Z,14.6431
2023-05-10T12:17:43.514Z,14.5915
2023-05-10T12:18:43.921Z,14.5416
2023-05-10T12:19:44.608Z,14.4911
2023-05-10T12:20:45.088Z,14.4363
2023-05-10T12:21:46.294Z,14.3963
2023-05-10T12:22:47.470Z,14.3591
2023-05-10T12:23:48.429Z,14.3179
2023-05-10T12:24:49.581Z,14.2705
2023-05-10T12:25:49.618Z,14.2132
2023-05-10T12:26:50.902Z,14.1638
2023-05-10T12:27:52.042Z,14.1283
2023-05-10T12:28:52.038Z,14.1083
2023-05-10T12:29:52.056Z,14.1098
2023-05-10T12:30:53.225Z,14.1264
2023-05-10T12:31:53.403Z,14.1657
2023-05-10T12:32:53.777Z,14.2288
2023-05-10T12:33:55.113Z,14.2998
2023-05-10T12:34:56.031Z,14.3792
2023-05-10T12:35:57.295Z,14.4716
2023-05-10T12:36:58.441Z,14.5727
2023-05-10T12:37:58.461Z,14.6575
2023-05-10T12:38:59.518Z,14.7242
2023-05-10T12:40:00.834Z,14.7913
2023-05-10T12:41:01.026Z,14.8421
2023-05-10T12:42:01.969Z,14.8812
2023-05-10T12:43:02.188Z,14.9081
2023-05-10T12:44:02.412Z,14.9203
2023-05-10T12:45:03.584Z,14.9246
2023-05-10T12:46:04.948Z,14.9162
2023-05-10T12:47:05.035Z,14.8954
2023-05-10T12:48:06.060Z,14.8673
2023-05-10T12:49:11.718Z,14.8347
2023-05-10T12:50:11.879Z,14.7870
2023-05-10T12:51:12.955Z,14.7438
2023-05-10T12:52:14.121Z,14.7046
2023-05-10T12:53:15.290Z,14.6748
2023-05-10T12:54:15.379Z,14.6502
2023-05-10T12:55:16.485Z,14.6276
2023-05-10T12:56:17.702Z,14.6017
2023-05-10T12:57:18.890Z,14.5863
2023-05-10T12:58:35.068Z,14.5870
2023-05-10T12:59:23.778Z,14.6182
2023-05-10T13:00:23.653Z,14.6576
2023-05-10T13:01:23.943Z,14.6927
2023-05-10T13:02:24.050Z,14.7172
2023-05-10T13:03:24.213Z,14.7333
2023-05-10T13:04:25.298Z,14.7401